sensor_id;sensor_type;location;lat;lon;timestamp;P1;durP1;ratioP1;P2;durP2;ratioP2
12762;SDS011;6445;52.490;13.378;2022-12-20T00:00:48;24.17;;;15.80;;
12762;SDS011;6445;52.490;13.378;2022-12-20T00:03:13;29.65;;;15.00;;
12762;SDS011;6445;52.490;13.378;2022-12-20T00:05:39;29.90;;;15.20;;
12762;SDS011;6445;52.490;13.378;2022-12-20T00:08:06;24.83;;;15.43;;
12762;SDS011;6445;52.490;13.378;2022-12-20T00:10:38;26.45;;;15.10;;
12762;SDS011;6445;52.490;13.378;2022-12-20T00:13:05;26.55;;;16.15;;
12762;SDS011;6445;52.490;13.378;2022-12-20T00:15:31;24.23;;;15.05;;
12762;SDS011;6445;52.490;13.378;2022-12-20T00:17:57;26.13;;;14.45;;
12762;SDS011;6445;52.490;13.378;2022-12-20T00:20:22;26.40;;;13.75;;
12762;SDS011;6445;52.490;13.378;2022-12-20T00:22:48;24.17;;;14.50;;
12762;SDS011;6445;52.490;13.378;2022-12-20T00:25:13;26.27;;;15.13;;
12762;SDS011;6445;52.490;13.378;2022-12-20T00:27:38;25.50;;;14.55;;
12762;SDS011;6445;52.490;13.378;2022-12-20T00:30:04;23.80;;;14.45;;
12762;SDS011;6445;52.490;13.378;2022-12-20T00:32:30;24.67;;;14.65;;
12762;SDS011;6445;52.490;13.378;2022-12-20T00:34:55;21.77;;;13.90;;
12762;SDS011;6445;52.490;13.378;2022-12-20T00:37:20;23.50;;;13.82;;
12762;SDS011;6445;52.490;13.378;2022-12-20T00:39:46;24.50;;;13.80;;
12762;SDS011;6445;52.490;13.378;2022-12-20T00:42:11;25.25;;;14.55;;
12762;SDS011;6445;52.490;13.378;2022-12-20T00:44:36;24.33;;;13.55;;
12762;SDS011;6445;52.490;13.378;2022-12-20T00:47:01;25.75;;;13.75;;
12762;SDS011;6445;52.490;13.378;2022-12-20T00:49:27;23.05;;;13.60;;
12762;SDS011;6445;52.490;13.378;2022-12-20T00:51:52;19.73;;;12.82;;
12762;SDS011;6445;52.490;13.378;2022-12-20T00:54:17;21.38;;;13.57;;
12762;SDS011;6445;52.490;13.378;2022-12-20T00:56:42;22.40;;;13.88;;
12762;SDS011;6445;52.490;13.378;2022-12-20T00:59:08;24.50;;;13.93;;
12762;SDS011;6445;52.490;13.378;2022-12-20T01:01:33;23.88;;;14.15;;
12762;SDS011;6445;52.490;13.378;2022-12-20T01:03:58;22.70;;;13.07;;
12762;SDS011;6445;52.490;13.378;2022-12-20T01:06:24;23.25;;;13.65;;
12762;SDS011;6445;52.490;13.378;2022-12-20T01:08:50;23.13;;;13.48;;
12762;SDS011;6445;52.490;13.378;2022-12-20T01:11:17;19.23;;;12.88;;
12762;SDS011;6445;52.490;13.378;2022-12-20T01:13:46;20.42;;;12.60;;
12762;SDS011;6445;52.490;13.378;2022-12-20T01:16:17;25.08;;;14.02;;
12762;SDS011;6445;52.490;13.378;2022-12-20T01:18:45;21.67;;;13.85;;
12762;SDS011;6445;52.490;13.378;2022-12-20T01:21:12;21.83;;;12.68;;
12762;SDS011;6445;52.490;13.378;2022-12-20T01:23:38;19.65;;;12.48;;
12762;SDS011;6445;52.490;13.378;2022-12-20T01:26:05;23.55;;;12.85;;
12762;SDS011;6445;52.490;13.378;2022-12-20T01:28:36;20.80;;;13.30;;
12762;SDS011;6445;52.490;13.378;2022-12-20T01:31:06;21.08;;;13.10;;
12762;SDS011;6445;52.490;13.378;2022-12-20T01:33:33;19.90;;;12.27;;
12762;SDS011;6445;52.490;13.378;2022-12-20T01:35:59;20.83;;;12.93;;
12762;SDS011;6445;52.490;13.378;2022-12-20T01:38:29;22.20;;;13.10;;
12762;SDS011;6445;52.490;13.378;2022-12-20T01:40:55;22.48;;;13.23;;
12762;SDS011;6445;52.490;13.378;2022-12-20T01:43:22;20.65;;;13.13;;
12762;SDS011;6445;52.490;13.378;2022-12-20T01:45:47;21.25;;;12.60;;
12762;SDS011;6445;52.490;13.378;2022-12-20T01:48:14;21.73;;;12.98;;
12762;SDS011;6445;52.490;13.378;2022-12-20T01:50:47;20.17;;;12.15;;
12762;SDS011;6445;52.490;13.378;2022-12-20T01:53:13;20.13;;;12.40;;
12762;SDS011;6445;52.490;13.378;2022-12-20T01:55:40;20.27;;;12.65;;
12762;SDS011;6445;52.490;13.378;2022-12-20T01:58:07;20.75;;;12.73;;
12762;SDS011;6445;52.490;13.378;2022-12-20T02:00:34;20.88;;;13.13;;
12762;SDS011;6445;52.490;13.378;2022-12-20T02:03:02;21.63;;;12.85;;
12762;SDS011;6445;52.490;13.378;2022-12-20T02:05:35;21.50;;;12.20;;
12762;SDS011;6445;52.490;13.378;2022-12-20T02:08:02;21.02;;;12.38;;
12762;SDS011;6445;52.490;13.378;2022-12-20T02:30:48;20.63;;;12.55;;
12762;SDS011;6445;52.490;13.378;2022-12-20T02:33:18;22.10;;;12.52;;
12762;SDS011;6445;52.490;13.378;2022-12-20T02:35:48;20.08;;;12.23;;
12762;SDS011;6445;52.490;13.378;2022-12-20T02:38:24;22.63;;;12.85;;
12762;SDS011;6445;52.490;13.378;2022-12-20T02:40:50;18.55;;;12.25;;
12762;SDS011;6445;52.490;13.378;2022-12-20T02:43:22;19.80;;;12.27;;
12762;SDS011;6445;52.490;13.378;2022-12-20T02:46:07;18.27;;;11.93;;
12762;SDS011;6445;52.490;13.378;2022-12-20T02:48:34;19.73;;;11.95;;
12762;SDS011;6445;52.490;13.378;2022-12-20T02:51:02;19.85;;;12.02;;
12762;SDS011;6445;52.490;13.378;2022-12-20T02:53:30;21.27;;;12.90;;
12762;SDS011;6445;52.490;13.378;2022-12-20T02:55:58;19.73;;;11.77;;
12762;SDS011;6445;52.490;13.378;2022-12-20T03:01:12;17.30;;;11.27;;
12762;SDS011;6445;52.490;13.378;2022-12-20T03:03:45;18.20;;;11.32;;
12762;SDS011;6445;52.490;13.378;2022-12-20T03:06:10;20.50;;;12.15;;
12762;SDS011;6445;52.490;13.378;2022-12-20T03:08:35;19.45;;;11.00;;
12762;SDS011;6445;52.490;13.378;2022-12-20T03:11:01;19.70;;;12.05;;
12762;SDS011;6445;52.490;13.378;2022-12-20T03:13:26;18.67;;;11.18;;
12762;SDS011;6445;52.490;13.378;2022-12-20T03:15:51;17.25;;;11.07;;
12762;SDS011;6445;52.490;13.378;2022-12-20T03:18:16;18.45;;;11.90;;
12762;SDS011;6445;52.490;13.378;2022-12-20T03:20:42;19.63;;;11.43;;
12762;SDS011;6445;52.490;13.378;2022-12-20T03:23:07;18.98;;;11.75;;
12762;SDS011;6445;52.490;13.378;2022-12-20T03:25:33;17.23;;;10.75;;
12762;SDS011;6445;52.490;13.378;2022-12-20T03:27:58;19.08;;;11.82;;
12762;SDS011;6445;52.490;13.378;2022-12-20T03:30:23;16.88;;;10.93;;
12762;SDS011;6445;52.490;13.378;2022-12-20T03:32:49;19.50;;;11.25;;
12762;SDS011;6445;52.490;13.378;2022-12-20T03:35:14;16.83;;;11.50;;
12762;SDS011;6445;52.490;13.378;2022-12-20T03:37:39;19.40;;;11.98;;
12762;SDS011;6445;52.490;13.378;2022-12-20T03:40:05;18.63;;;11.27;;
12762;SDS011;6445;52.490;13.378;2022-12-20T03:42:31;19.13;;;11.13;;
12762;SDS011;6445;52.490;13.378;2022-12-20T03:44:56;17.55;;;11.75;;
12762;SDS011;6445;52.490;13.378;2022-12-20T03:47:21;17.77;;;10.88;;
12762;SDS011;6445;52.490;13.378;2022-12-20T03:49:46;18.45;;;12.05;;
12762;SDS011;6445;52.490;13.378;2022-12-20T03:52:12;19.80;;;12.32;;
12762;SDS011;6445;52.490;13.378;2022-12-20T03:54:38;18.67;;;12.02;;
12762;SDS011;6445;52.490;13.378;2022-12-20T03:57:03;19.48;;;12.05;;
12762;SDS011;6445;52.490;13.378;2022-12-20T03:59:29;17.05;;;10.57;;
12762;SDS011;6445;52.490;13.378;2022-12-20T04:01:54;16.40;;;11.02;;
12762;SDS011;6445;52.490;13.378;2022-12-20T04:04:19;17.67;;;11.10;;
12762;SDS011;6445;52.490;13.378;2022-12-20T04:06:45;16.33;;;11.07;;
12762;SDS011;6445;52.490;13.378;2022-12-20T04:09:10;16.88;;;11.10;;
12762;SDS011;6445;52.490;13.378;2022-12-20T04:11:36;17.63;;;10.77;;
12762;SDS011;6445;52.490;13.378;2022-12-20T04:14:03;18.75;;;11.13;;
12762;SDS011;6445;52.490;13.378;2022-12-20T04:16:29;20.27;;;11.38;;
12762;SDS011;6445;52.490;13.378;2022-12-20T04:18:56;16.40;;;11.15;;
12762;SDS011;6445;52.490;13.378;2022-12-20T04:21:26;16.92;;;10.80;;
12762;SDS011;6445;52.490;13.378;2022-12-20T04:23:53;15.50;;;10.35;;
12762;SDS011;6445;52.490;13.378;2022-12-20T04:26:19;19.08;;;12.00;;
12762;SDS011;6445;52.490;13.378;2022-12-20T04:28:44;16.15;;;10.48;;
12762;SDS011;6445;52.490;13.378;2022-12-20T04:31:10;19.02;;;11.43;;
12762;SDS011;6445;52.490;13.378;2022-12-20T04:33:35;18.20;;;10.50;;
12762;SDS011;6445;52.490;13.378;2022-12-20T04:36:00;19.13;;;11.20;;
12762;SDS011;6445;52.490;13.378;2022-12-20T04:38:26;19.20;;;11.80;;
12762;SDS011;6445;52.490;13.378;2022-12-20T04:40:52;18.40;;;10.98;;
12762;SDS011;6445;52.490;13.378;2022-12-20T04:43:19;20.33;;;10.75;;
12762;SDS011;6445;52.490;13.378;2022-12-20T04:45:48;19.67;;;11.88;;
12762;SDS011;6445;52.490;13.378;2022-12-20T04:48:15;17.55;;;11.32;;
12762;SDS011;6445;52.490;13.378;2022-12-20T04:50:40;17.27;;;10.82;;
12762;SDS011;6445;52.490;13.378;2022-12-20T04:53:07;17.52;;;10.90;;
12762;SDS011;6445;52.490;13.378;2022-12-20T04:55:53;21.63;;;12.05;;
12762;SDS011;6445;52.490;13.378;2022-12-20T04:58:18;14.95;;;10.57;;
12762;SDS011;6445;52.490;13.378;2022-12-20T05:00:44;19.52;;;11.73;;
12762;SDS011;6445;52.490;13.378;2022-12-20T05:03:09;17.73;;;11.45;;
12762;SDS011;6445;52.490;13.378;2022-12-20T05:05:34;18.77;;;10.93;;
12762;SDS011;6445;52.490;13.378;2022-12-20T05:07:59;18.95;;;11.80;;
12762;SDS011;6445;52.490;13.378;2022-12-20T05:10:25;17.95;;;10.90;;
12762;SDS011;6445;52.490;13.378;2022-12-20T05:12:51;16.98;;;11.18;;
12762;SDS011;6445;52.490;13.378;2022-12-20T05:15:16;19.83;;;12.02;;
12762;SDS011;6445;52.490;13.378;2022-12-20T05:17:41;18.55;;;12.32;;
12762;SDS011;6445;52.490;13.378;2022-12-20T05:20:07;20.40;;;11.95;;
12762;SDS011;6445;52.490;13.378;2022-12-20T05:22:32;20.05;;;11.90;;
12762;SDS011;6445;52.490;13.378;2022-12-20T05:25:16;16.60;;;10.90;;
12762;SDS011;6445;52.490;13.378;2022-12-20T05:28:00;20.85;;;11.93;;
12762;SDS011;6445;52.490;13.378;2022-12-20T05:30:26;17.75;;;10.93;;
12762;SDS011;6445;52.490;13.378;2022-12-20T05:32:51;18.25;;;11.77;;
12762;SDS011;6445;52.490;13.378;2022-12-20T05:35:17;20.25;;;11.65;;
12762;SDS011;6445;52.490;13.378;2022-12-20T05:37:42;19.85;;;11.85;;
12762;SDS011;6445;52.490;13.378;2022-12-20T05:40:08;17.63;;;11.95;;
12762;SDS011;6445;52.490;13.378;2022-12-20T05:42:34;18.63;;;11.57;;
12762;SDS011;6445;52.490;13.378;2022-12-20T05:44:59;17.60;;;11.52;;
12762;SDS011;6445;52.490;13.378;2022-12-20T05:47:25;17.67;;;10.65;;
12762;SDS011;6445;52.490;13.378;2022-12-20T05:49:51;16.25;;;10.63;;
12762;SDS011;6445;52.490;13.378;2022-12-20T05:52:16;18.70;;;11.23;;
12762;SDS011;6445;52.490;13.378;2022-12-20T05:54:41;18.30;;;11.32;;
12762;SDS011;6445;52.490;13.378;2022-12-20T05:57:06;17.42;;;11.45;;
12762;SDS011;6445;52.490;13.378;2022-12-20T05:59:32;18.77;;;11.27;;
12762;SDS011;6445;52.490;13.378;2022-12-20T06:01:57;19.73;;;11.40;;
12762;SDS011;6445;52.490;13.378;2022-12-20T06:04:22;18.38;;;11.57;;
12762;SDS011;6445;52.490;13.378;2022-12-20T06:06:48;18.23;;;10.82;;
12762;SDS011;6445;52.490;13.378;2022-12-20T06:09:13;19.77;;;12.07;;
12762;SDS011;6445;52.490;13.378;2022-12-20T06:11:38;18.80;;;11.93;;
12762;SDS011;6445;52.490;13.378;2022-12-20T06:14:03;19.30;;;11.48;;
12762;SDS011;6445;52.490;13.378;2022-12-20T06:16:29;18.33;;;11.77;;
12762;SDS011;6445;52.490;13.378;2022-12-20T06:18:54;16.92;;;11.35;;
12762;SDS011;6445;52.490;13.378;2022-12-20T06:21:20;20.27;;;12.07;;
12762;SDS011;6445;52.490;13.378;2022-12-20T06:23:46;17.73;;;10.52;;
12762;SDS011;6445;52.490;13.378;2022-12-20T06:26:11;19.90;;;12.20;;
12762;SDS011;6445;52.490;13.378;2022-12-20T06:28:36;20.00;;;12.00;;
12762;SDS011;6445;52.490;13.378;2022-12-20T06:31:07;18.70;;;11.77;;
12762;SDS011;6445;52.490;13.378;2022-12-20T06:33:34;17.40;;;10.93;;
12762;SDS011;6445;52.490;13.378;2022-12-20T06:35:59;18.20;;;11.77;;
12762;SDS011;6445;52.490;13.378;2022-12-20T06:38:24;17.80;;;11.32;;
12762;SDS011;6445;52.490;13.378;2022-12-20T06:40:49;19.95;;;11.77;;
12762;SDS011;6445;52.490;13.378;2022-12-20T06:43:15;17.98;;;11.63;;
12762;SDS011;6445;52.490;13.378;2022-12-20T06:45:40;20.23;;;12.43;;
12762;SDS011;6445;52.490;13.378;2022-12-20T06:48:05;21.60;;;12.68;;
12762;SDS011;6445;52.490;13.378;2022-12-20T06:50:31;20.20;;;12.23;;
12762;SDS011;6445;52.490;13.378;2022-12-20T06:52:56;20.73;;;12.23;;
12762;SDS011;6445;52.490;13.378;2022-12-20T06:55:21;18.55;;;12.45;;
12762;SDS011;6445;52.490;13.378;2022-12-20T06:57:46;23.15;;;13.38;;
12762;SDS011;6445;52.490;13.378;2022-12-20T07:00:12;19.15;;;12.00;;
12762;SDS011;6445;52.490;13.378;2022-12-20T07:02:37;22.23;;;13.32;;
12762;SDS011;6445;52.490;13.378;2022-12-20T07:05:03;21.77;;;13.20;;
12762;SDS011;6445;52.490;13.378;2022-12-20T07:07:28;21.17;;;13.70;;
12762;SDS011;6445;52.490;13.378;2022-12-20T07:09:54;23.40;;;13.10;;
12762;SDS011;6445;52.490;13.378;2022-12-20T07:12:19;21.73;;;14.15;;
12762;SDS011;6445;52.490;13.378;2022-12-20T07:14:44;23.70;;;14.30;;
12762;SDS011;6445;52.490;13.378;2022-12-20T07:17:09;20.13;;;13.65;;
12762;SDS011;6445;52.490;13.378;2022-12-20T07:19:35;22.00;;;14.07;;
12762;SDS011;6445;52.490;13.378;2022-12-20T07:22:01;24.10;;;13.65;;
12762;SDS011;6445;52.490;13.378;2022-12-20T07:24:26;22.27;;;14.27;;
12762;SDS011;6445;52.490;13.378;2022-12-20T07:26:51;26.52;;;15.07;;
12762;SDS011;6445;52.490;13.378;2022-12-20T07:29:17;21.88;;;13.85;;
12762;SDS011;6445;52.490;13.378;2022-12-20T07:31:42;24.17;;;14.88;;
12762;SDS011;6445;52.490;13.378;2022-12-20T07:34:07;23.45;;;14.02;;
12762;SDS011;6445;52.490;13.378;2022-12-20T07:36:32;22.27;;;14.05;;
12762;SDS011;6445;52.490;13.378;2022-12-20T07:38:58;21.35;;;14.30;;
12762;SDS011;6445;52.490;13.378;2022-12-20T07:41:23;27.08;;;15.07;;
12762;SDS011;6445;52.490;13.378;2022-12-20T07:43:49;24.23;;;14.82;;
12762;SDS011;6445;52.490;13.378;2022-12-20T07:46:14;22.35;;;14.07;;
12762;SDS011;6445;52.490;13.378;2022-12-20T07:48:40;22.45;;;14.77;;
12762;SDS011;6445;52.490;13.378;2022-12-20T07:51:07;24.83;;;14.93;;
12762;SDS011;6445;52.490;13.378;2022-12-20T07:53:36;25.92;;;14.82;;
12762;SDS011;6445;52.490;13.378;2022-12-20T07:56:07;24.90;;;15.60;;
12762;SDS011;6445;52.490;13.378;2022-12-20T07:58:34;23.23;;;14.98;;
12762;SDS011;6445;52.490;13.378;2022-12-20T08:01:03;24.95;;;15.95;;
12762;SDS011;6445;52.490;13.378;2022-12-20T08:03:35;28.60;;;16.20;;
12762;SDS011;6445;52.490;13.378;2022-12-20T08:06:04;27.45;;;16.45;;
12762;SDS011;6445;52.490;13.378;2022-12-20T08:08:31;26.45;;;16.13;;
12762;SDS011;6445;52.490;13.378;2022-12-20T08:11:02;26.80;;;16.05;;
12762;SDS011;6445;52.490;13.378;2022-12-20T08:13:30;29.75;;;16.38;;
12762;SDS011;6445;52.490;13.378;2022-12-20T08:15:57;25.58;;;16.15;;
12762;SDS011;6445;52.490;13.378;2022-12-20T08:18:23;25.90;;;16.67;;
12762;SDS011;6445;52.490;13.378;2022-12-20T08:20:48;29.13;;;16.75;;
12762;SDS011;6445;52.490;13.378;2022-12-20T08:23:14;28.63;;;15.88;;
12762;SDS011;6445;52.490;13.378;2022-12-20T08:25:39;27.65;;;16.92;;
12762;SDS011;6445;52.490;13.378;2022-12-20T08:28:04;30.30;;;17.92;;
12762;SDS011;6445;52.490;13.378;2022-12-20T08:30:30;29.42;;;17.33;;
12762;SDS011;6445;52.490;13.378;2022-12-20T08:32:55;27.75;;;16.55;;
12762;SDS011;6445;52.490;13.378;2022-12-20T08:35:20;29.80;;;17.55;;
12762;SDS011;6445;52.490;13.378;2022-12-20T08:37:46;31.70;;;17.05;;
12762;SDS011;6445;52.490;13.378;2022-12-20T08:40:12;30.98;;;17.40;;
12762;SDS011;6445;52.490;13.378;2022-12-20T08:42:37;29.80;;;17.20;;
12762;SDS011;6445;52.490;13.378;2022-12-20T08:45:03;33.15;;;18.50;;
12762;SDS011;6445;52.490;13.378;2022-12-20T08:47:29;29.88;;;17.48;;
12762;SDS011;6445;52.490;13.378;2022-12-20T08:49:54;28.50;;;17.63;;
12762;SDS011;6445;52.490;13.378;2022-12-20T08:52:19;30.15;;;17.27;;
12762;SDS011;6445;52.490;13.378;2022-12-20T08:54:45;32.45;;;18.30;;
12762;SDS011;6445;52.490;13.378;2022-12-20T08:57:10;25.77;;;17.23;;
12762;SDS011;6445;52.490;13.378;2022-12-20T08:59:36;30.00;;;18.00;;
12762;SDS011;6445;52.490;13.378;2022-12-20T09:02:01;33.42;;;18.80;;
12762;SDS011;6445;52.490;13.378;2022-12-20T09:04:26;33.97;;;17.98;;
12762;SDS011;6445;52.490;13.378;2022-12-20T09:06:51;35.20;;;18.33;;
12762;SDS011;6445;52.490;13.378;2022-12-20T09:09:17;30.83;;;17.25;;
12762;SDS011;6445;52.490;13.378;2022-12-20T09:11:42;33.25;;;18.48;;
12762;SDS011;6445;52.490;13.378;2022-12-20T09:14:07;38.28;;;21.15;;
12762;SDS011;6445;52.490;13.378;2022-12-20T09:16:32;26.83;;;17.52;;
12762;SDS011;6445;52.490;13.378;2022-12-20T09:18:58;31.33;;;17.58;;
12762;SDS011;6445;52.490;13.378;2022-12-20T09:21:25;32.50;;;18.30;;
12762;SDS011;6445;52.490;13.378;2022-12-20T09:23:51;30.23;;;17.50;;
12762;SDS011;6445;52.490;13.378;2022-12-20T09:26:19;29.40;;;17.48;;
12762;SDS011;6445;52.490;13.378;2022-12-20T09:28:45;32.08;;;18.08;;
12762;SDS011;6445;52.490;13.378;2022-12-20T09:31:13;30.58;;;17.30;;
12762;SDS011;6445;52.490;13.378;2022-12-20T09:33:43;34.42;;;19.88;;
12762;SDS011;6445;52.490;13.378;2022-12-20T09:36:10;30.50;;;17.75;;
12762;SDS011;6445;52.490;13.378;2022-12-20T09:38:43;29.52;;;16.45;;
12762;SDS011;6445;52.490;13.378;2022-12-20T09:41:21;31.20;;;18.17;;
12762;SDS011;6445;52.490;13.378;2022-12-20T09:43:48;25.63;;;15.93;;
12762;SDS011;6445;52.490;13.378;2022-12-20T09:46:14;27.00;;;16.13;;
12762;SDS011;6445;52.490;13.378;2022-12-20T09:48:40;26.08;;;15.57;;
12762;SDS011;6445;52.490;13.378;2022-12-20T09:54:04;21.23;;;13.45;;
12762;SDS011;6445;52.490;13.378;2022-12-20T09:56:32;22.05;;;14.32;;
12762;SDS011;6445;52.490;13.378;2022-12-20T10:01:33;21.90;;;13.38;;
12762;SDS011;6445;52.490;13.378;2022-12-20T10:04:02;18.48;;;12.30;;
12762;SDS011;6445;52.490;13.378;2022-12-20T10:06:34;19.48;;;12.38;;
12762;SDS011;6445;52.490;13.378;2022-12-20T10:09:02;20.10;;;12.65;;
12762;SDS011;6445;52.490;13.378;2022-12-20T10:11:48;17.70;;;11.68;;
12762;SDS011;6445;52.490;13.378;2022-12-20T10:17:25;18.42;;;11.90;;
12762;SDS011;6445;52.490;13.378;2022-12-20T10:20:08;17.88;;;11.77;;
12762;SDS011;6445;52.490;13.378;2022-12-20T10:22:56;17.60;;;11.45;;
12762;SDS011;6445;52.490;13.378;2022-12-20T10:25:30;19.30;;;12.43;;
12762;SDS011;6445;52.490;13.378;2022-12-20T10:27:57;17.05;;;11.65;;
12762;SDS011;6445;52.490;13.378;2022-12-20T10:30:26;25.52;;;13.32;;
12762;SDS011;6445;52.490;13.378;2022-12-20T10:32:54;18.73;;;12.02;;
12762;SDS011;6445;52.490;13.378;2022-12-20T10:35:39;19.50;;;11.88;;
12762;SDS011;6445;52.490;13.378;2022-12-20T10:38:06;18.65;;;11.75;;
12762;SDS011;6445;52.490;13.378;2022-12-20T10:40:41;18.42;;;12.43;;
12762;SDS011;6445;52.490;13.378;2022-12-20T10:43:18;19.20;;;12.52;;
12762;SDS011;6445;52.490;13.378;2022-12-20T10:45:59;20.95;;;12.48;;
12762;SDS011;6445;52.490;13.378;2022-12-20T10:50:57;18.13;;;11.98;;
12762;SDS011;6445;52.490;13.378;2022-12-20T10:53:25;17.73;;;11.25;;
12762;SDS011;6445;52.490;13.378;2022-12-20T10:55:53;15.27;;;10.52;;
12762;SDS011;6445;52.490;13.378;2022-12-20T11:01:03;19.83;;;11.55;;
12762;SDS011;6445;52.490;13.378;2022-12-20T11:03:31;18.15;;;11.60;;
12762;SDS011;6445;52.490;13.378;2022-12-20T11:05:57;17.60;;;11.32;;
12762;SDS011;6445;52.490;13.378;2022-12-20T11:08:26;16.98;;;10.68;;
12762;SDS011;6445;52.490;13.378;2022-12-20T11:13:53;17.55;;;11.60;;
12762;SDS011;6445;52.490;13.378;2022-12-20T11:16:27;18.98;;;11.70;;
12762;SDS011;6445;52.490;13.378;2022-12-20T11:30:14;17.17;;;10.75;;
12762;SDS011;6445;52.490;13.378;2022-12-20T11:32:56;17.83;;;11.48;;
12762;SDS011;6445;52.490;13.378;2022-12-20T11:44:13;15.07;;;10.50;;
12762;SDS011;6445;52.490;13.378;2022-12-20T11:46:49;15.95;;;10.68;;
12762;SDS011;6445;52.490;13.378;2022-12-20T11:49:39;19.20;;;12.02;;
12762;SDS011;6445;52.490;13.378;2022-12-20T11:52:20;17.77;;;10.45;;
12762;SDS011;6445;52.490;13.378;2022-12-20T11:55:07;19.05;;;11.18;;
12762;SDS011;6445;52.490;13.378;2022-12-20T11:57:46;16.55;;;10.75;;
12762;SDS011;6445;52.490;13.378;2022-12-20T12:00:18;17.67;;;11.85;;
12762;SDS011;6445;52.490;13.378;2022-12-20T12:02:47;15.90;;;10.70;;
12762;SDS011;6445;52.490;13.378;2022-12-20T12:07:53;19.58;;;11.63;;
12762;SDS011;6445;52.490;13.378;2022-12-20T12:10:23;17.08;;;11.05;;
12762;SDS011;6445;52.490;13.378;2022-12-20T12:15:47;18.60;;;11.55;;
12762;SDS011;6445;52.490;13.378;2022-12-20T12:18:20;16.33;;;10.88;;
12762;SDS011;6445;52.490;13.378;2022-12-20T12:23:41;17.15;;;11.07;;
12762;SDS011;6445;52.490;13.378;2022-12-20T12:26:23;18.70;;;11.45;;
12762;SDS011;6445;52.490;13.378;2022-12-20T12:28:54;17.48;;;11.25;;
12762;SDS011;6445;52.490;13.378;2022-12-20T12:31:46;17.70;;;11.75;;
12762;SDS011;6445;52.490;13.378;2022-12-20T12:42:57;16.00;;;10.52;;
12762;SDS011;6445;52.490;13.378;2022-12-20T12:51:01;18.27;;;10.98;;
12762;SDS011;6445;52.490;13.378;2022-12-20T12:53:50;18.17;;;11.65;;
12762;SDS011;6445;52.490;13.378;2022-12-20T12:59:08;16.55;;;11.30;;
12762;SDS011;6445;52.490;13.378;2022-12-20T13:04:25;18.00;;;11.52;;
12762;SDS011;6445;52.490;13.378;2022-12-20T13:06:53;15.50;;;10.50;;
12762;SDS011;6445;52.490;13.378;2022-12-20T13:11:56;19.95;;;11.35;;
12762;SDS011;6445;52.490;13.378;2022-12-20T13:16:51;16.95;;;10.60;;
12762;SDS011;6445;52.490;13.378;2022-12-20T13:21:54;17.40;;;11.63;;
12762;SDS011;6445;52.490;13.378;2022-12-20T13:29:59;19.60;;;11.50;;
12762;SDS011;6445;52.490;13.378;2022-12-20T13:37:53;18.73;;;11.48;;
12762;SDS011;6445;52.490;13.378;2022-12-20T13:40:42;16.35;;;10.40;;
12762;SDS011;6445;52.490;13.378;2022-12-20T13:43:12;17.33;;;10.88;;
12762;SDS011;6445;52.490;13.378;2022-12-20T13:45:48;16.20;;;10.75;;
12762;SDS011;6445;52.490;13.378;2022-12-20T13:48:21;18.58;;;11.48;;
12762;SDS011;6445;52.490;13.378;2022-12-20T13:50:54;15.20;;;10.70;;
12762;SDS011;6445;52.490;13.378;2022-12-20T13:53:23;16.58;;;10.68;;
12762;SDS011;6445;52.490;13.378;2022-12-20T13:55:53;19.65;;;11.75;;
12762;SDS011;6445;52.490;13.378;2022-12-20T13:58:27;17.58;;;10.80;;
12762;SDS011;6445;52.490;13.378;2022-12-20T14:01:09;18.85;;;11.43;;
12762;SDS011;6445;52.490;13.378;2022-12-20T14:03:40;19.67;;;11.02;;
12762;SDS011;6445;52.490;13.378;2022-12-20T14:06:10;16.02;;;11.20;;
12762;SDS011;6445;52.490;13.378;2022-12-20T14:08:38;21.77;;;12.18;;
12762;SDS011;6445;52.490;13.378;2022-12-20T14:11:11;20.95;;;11.82;;
12762;SDS011;6445;52.490;13.378;2022-12-20T14:13:38;17.98;;;11.70;;
12762;SDS011;6445;52.490;13.378;2022-12-20T14:16:12;18.48;;;11.15;;
12762;SDS011;6445;52.490;13.378;2022-12-20T14:18:40;16.50;;;11.05;;
12762;SDS011;6445;52.490;13.378;2022-12-20T14:21:05;20.13;;;11.70;;
12762;SDS011;6445;52.490;13.378;2022-12-20T14:23:37;18.10;;;11.38;;
12762;SDS011;6445;52.490;13.378;2022-12-20T14:26:05;19.92;;;10.95;;
12762;SDS011;6445;52.490;13.378;2022-12-20T14:28:44;17.15;;;11.45;;
12762;SDS011;6445;52.490;13.378;2022-12-20T14:31:28;22.77;;;12.48;;
12762;SDS011;6445;52.490;13.378;2022-12-20T14:36:29;19.92;;;12.80;;
12762;SDS011;6445;52.490;13.378;2022-12-20T14:38:55;19.83;;;12.23;;
12762;SDS011;6445;52.490;13.378;2022-12-20T14:44:02;22.48;;;13.10;;
12762;SDS011;6445;52.490;13.378;2022-12-20T14:46:30;23.30;;;13.25;;
12762;SDS011;6445;52.490;13.378;2022-12-20T14:51:51;20.67;;;12.75;;
12762;SDS011;6445;52.490;13.378;2022-12-20T14:54:28;23.45;;;13.60;;
12762;SDS011;6445;52.490;13.378;2022-12-20T14:56:54;21.85;;;13.02;;
12762;SDS011;6445;52.490;13.378;2022-12-20T14:59:27;20.55;;;13.10;;
12762;SDS011;6445;52.490;13.378;2022-12-20T15:01:53;20.70;;;12.00;;
12762;SDS011;6445;52.490;13.378;2022-12-20T15:04:21;23.33;;;13.25;;
12762;SDS011;6445;52.490;13.378;2022-12-20T15:06:48;19.27;;;13.15;;
12762;SDS011;6445;52.490;13.378;2022-12-20T15:09:14;23.30;;;13.10;;
12762;SDS011;6445;52.490;13.378;2022-12-20T15:11:40;24.27;;;13.57;;
12762;SDS011;6445;52.490;13.378;2022-12-20T15:17:02;19.60;;;12.40;;
12762;SDS011;6445;52.490;13.378;2022-12-20T15:19:32;20.20;;;13.20;;
12762;SDS011;6445;52.490;13.378;2022-12-20T15:21:58;23.60;;;14.25;;
12762;SDS011;6445;52.490;13.378;2022-12-20T15:24:24;21.67;;;13.13;;
12762;SDS011;6445;52.490;13.378;2022-12-20T15:26:51;23.02;;;13.93;;
12762;SDS011;6445;52.490;13.378;2022-12-20T15:31:47;23.33;;;13.73;;
12762;SDS011;6445;52.490;13.378;2022-12-20T15:34:14;22.35;;;13.80;;
12762;SDS011;6445;52.490;13.378;2022-12-20T15:36:58;25.73;;;14.43;;
12762;SDS011;6445;52.490;13.378;2022-12-20T15:39:24;23.27;;;13.80;;
12762;SDS011;6445;52.490;13.378;2022-12-20T15:41:50;22.95;;;14.20;;
12762;SDS011;6445;52.490;13.378;2022-12-20T15:44:17;22.85;;;14.35;;
12762;SDS011;6445;52.490;13.378;2022-12-20T15:46:46;23.52;;;14.23;;
12762;SDS011;6445;52.490;13.378;2022-12-20T15:49:13;23.00;;;14.23;;
12762;SDS011;6445;52.490;13.378;2022-12-20T15:51:42;23.58;;;14.10;;
12762;SDS011;6445;52.490;13.378;2022-12-20T15:54:23;25.08;;;15.13;;
12762;SDS011;6445;52.490;13.378;2022-12-20T15:56:51;25.80;;;14.63;;
12762;SDS011;6445;52.490;13.378;2022-12-20T15:59:17;24.67;;;15.07;;
12762;SDS011;6445;52.490;13.378;2022-12-20T16:01:42;22.60;;;14.13;;
12762;SDS011;6445;52.490;13.378;2022-12-20T16:04:11;23.60;;;14.07;;
12762;SDS011;6445;52.490;13.378;2022-12-20T16:06:39;24.95;;;14.60;;
12762;SDS011;6445;52.490;13.378;2022-12-20T16:09:04;24.80;;;14.30;;
12762;SDS011;6445;52.490;13.378;2022-12-20T16:11:30;23.27;;;13.43;;
12762;SDS011;6445;52.490;13.378;2022-12-20T16:13:55;23.27;;;14.27;;
12762;SDS011;6445;52.490;13.378;2022-12-20T16:16:23;23.15;;;13.88;;
12762;SDS011;6445;52.490;13.378;2022-12-20T16:18:50;22.65;;;13.95;;
12762;SDS011;6445;52.490;13.378;2022-12-20T16:21:18;22.85;;;14.00;;
12762;SDS011;6445;52.490;13.378;2022-12-20T16:23:45;20.88;;;13.43;;
12762;SDS011;6445;52.490;13.378;2022-12-20T16:26:14;23.50;;;13.38;;